createdAt,value
2018-12-09T00:00:14.252Z,3.90
2018-12-09T00:02:43.599Z,3.70
2018-12-09T00:05:12.283Z,3.70
2018-12-09T00:07:41.649Z,3.60
2018-12-09T00:10:10.396Z,3.90
2018-12-09T00:12:39.918Z,3.80
2018-12-09T00:15:08.990Z,3.60
2018-12-09T00:17:38.149Z,3.70
2018-12-09T00:20:07.393Z,3.70
2018-12-09T00:22:36.776Z,3.60
2018-12-09T00:25:06.031Z,3.70
2018-12-09T00:27:35.469Z,3.40
2018-12-09T00:30:05.103Z,3.40
2018-12-09T00:32:34.324Z,3.30
2018-12-09T00:35:04.669Z,3.40
2018-12-09T00:37:33.916Z,3.30
2018-12-09T00:40:03.392Z,3.50
2018-12-09T00:42:32.770Z,3.40
2018-12-09T00:45:02.021Z,3.30
2018-12-09T00:47:31.078Z,3.30
2018-12-09T00:50:00.612Z,3.50
2018-12-09T00:52:29.416Z,3.30
2018-12-09T00:54:59.277Z,3.30
2018-12-09T00:57:28.169Z,3.30
2018-12-09T00:59:57.520Z,3.50
2018-12-09T01:02:26.843Z,3.50
2018-12-09T01:04:56.058Z,3.40
2018-12-09T01:07:25.652Z,3.40
2018-12-09T01:09:54.932Z,3.40
2018-12-09T01:12:24.682Z,3.70
2018-12-09T01:14:54.151Z,3.40
2018-12-09T01:17:23.308Z,3.40
2018-12-09T01:19:52.788Z,3.60
2018-12-09T01:22:22.393Z,3.40
2018-12-09T01:24:51.667Z,3.90
2018-12-09T01:27:21.067Z,3.40
2018-12-09T01:29:51.329Z,3.90
2018-12-09T01:32:21.016Z,3.60
2018-12-09T01:34:50.113Z,3.60
2018-12-09T01:37:19.639Z,3.80
2018-12-09T01:39:48.883Z,3.40
2018-12-09T01:42:18.210Z,3.40
2018-12-09T01:44:47.221Z,3.40
2018-12-09T01:47:16.342Z,3.80
2018-12-09T01:49:45.780Z,3.40
2018-12-09T01:52:15.067Z,3.70
2018-12-09T01:54:44.615Z,3.40
2018-12-09T01:57:14.094Z,3.40
2018-12-09T01:59:43.421Z,3.70
2018-12-09T02:02:13.000Z,3.40
2018-12-09T02:04:42.229Z,3.40
2018-12-09T02:07:11.372Z,3.30
2018-12-09T02:09:40.848Z,3.50
2018-12-09T02:12:10.193Z,3.30
2018-12-09T02:14:39.321Z,3.50
2018-12-09T02:17:08.327Z,3.30
2018-12-09T02:19:37.017Z,3.30
2018-12-09T02:22:06.519Z,3.60
2018-12-09T02:24:36.252Z,3.40
2018-12-09T02:27:05.349Z,3.40
2018-12-09T02:29:34.554Z,3.40
2018-12-09T02:32:04.068Z,3.40
2018-12-09T02:34:33.660Z,3.40
2018-12-09T02:37:02.860Z,3.40
2018-12-09T02:39:32.181Z,3.60
2018-12-09T02:42:01.066Z,3.40
2018-12-09T02:44:30.347Z,3.40
2018-12-09T02:46:59.633Z,3.50
2018-12-09T02:49:28.934Z,3.30
2018-12-09T02:51:58.429Z,3.30
2018-12-09T02:54:27.727Z,3.40
2018-12-09T02:56:56.836Z,3.40
2018-12-09T02:59:25.587Z,3.40
2018-12-09T03:01:54.246Z,3.40
2018-12-09T03:04:22.978Z,3.40
2018-12-09T03:06:51.788Z,3.30
2018-12-09T03:09:20.480Z,3.30
2018-12-09T03:11:49.712Z,3.30
2018-12-09T03:14:18.813Z,3.40
2018-12-09T03:16:47.841Z,3.30
2018-12-09T03:19:16.939Z,3.30
2018-12-09T03:21:46.194Z,3.40
2018-12-09T03:24:15.163Z,3.40
2018-12-09T03:26:44.885Z,3.50
2018-12-09T03:29:14.457Z,3.40
2018-12-09T03:31:43.964Z,3.40
2018-12-09T03:34:13.008Z,3.30
2018-12-09T03:36:42.405Z,3.70
2018-12-09T03:39:11.443Z,3.40
2018-12-09T03:41:40.942Z,3.40
2018-12-09T03:44:10.226Z,3.30
2018-12-09T03:46:39.164Z,3.40
2018-12-09T03:49:08.001Z,3.30
2018-12-09T03:51:36.756Z,3.40
2018-12-09T03:54:05.528Z,3.30
2018-12-09T03:56:34.844Z,3.30
2018-12-09T03:59:04.643Z,3.30
2018-12-09T04:01:34.127Z,3.40
2018-12-09T04:04:03.376Z,3.30
2018-12-09T04:06:32.681Z,3.30
2018-12-09T04:09:01.905Z,3.40
2018-12-09T04:11:31.481Z,3.60
2018-12-09T04:14:00.495Z,3.40
2018-12-09T04:16:29.985Z,3.30
2018-12-09T04:18:59.380Z,3.30
2018-12-09T04:21:28.952Z,3.40
2018-12-09T04:23:58.171Z,3.40
2018-12-09T04:26:27.181Z,3.10
2018-12-09T04:28:56.766Z,3.30
2018-12-09T04:31:26.193Z,3.30
2018-12-09T04:33:54.891Z,3.30
2018-12-09T04:36:23.621Z,3.30
2018-12-09T04:38:52.347Z,3.30
2018-12-09T04:41:21.196Z,3.40
2018-12-09T04:43:50.261Z,3.60
2018-12-09T04:46:19.280Z,3.60
2018-12-09T04:48:49.137Z,3.70
2018-12-09T04:51:18.189Z,3.40
2018-12-09T04:53:47.544Z,3.30
2018-12-09T04:56:16.712Z,3.40
2018-12-09T04:58:50.174Z,3.40
2018-12-09T05:01:19.489Z,3.30
2018-12-09T05:03:48.695Z,3.30
2018-12-09T05:06:18.164Z,3.40
2018-12-09T05:08:47.108Z,3.40
2018-12-09T05:11:16.527Z,3.40
2018-12-09T05:13:45.313Z,3.30
2018-12-09T05:16:14.034Z,3.30
2018-12-09T05:18:49.703Z,3.40
2018-12-09T05:21:18.479Z,3.60
2018-12-09T05:23:55.127Z,3.90
2018-12-09T05:26:24.725Z,3.60
2018-12-09T05:28:54.236Z,3.60
2018-12-09T05:31:23.459Z,3.70
2018-12-09T05:33:52.540Z,3.60
2018-12-09T05:36:21.648Z,3.60
2018-12-09T05:38:51.126Z,3.60
2018-12-09T05:41:20.629Z,3.60
2018-12-09T05:43:49.765Z,3.70
2018-12-09T05:46:19.343Z,3.60
2018-12-09T05:48:49.322Z,3.90
2018-12-09T05:51:18.884Z,3.60
2018-12-09T05:53:48.206Z,3.60
2018-12-09T05:56:17.686Z,3.70
2018-12-09T05:58:46.423Z,3.90
2018-12-09T06:01:15.573Z,3.90
2018-12-09T06:03:44.249Z,3.70
2018-12-09T06:06:13.034Z,3.90
2018-12-09T06:08:43.004Z,3.60
2018-12-09T06:11:12.106Z,3.70
2018-12-09T06:13:41.469Z,3.70
2018-12-09T06:16:10.559Z,3.90
2018-12-09T06:18:40.104Z,3.60
2018-12-09T06:21:09.509Z,3.80
2018-12-09T06:23:38.605Z,3.70
2018-12-09T06:26:07.995Z,4.20
2018-12-09T06:28:37.988Z,3.90
2018-12-09T06:31:07.388Z,3.70
2018-12-09T06:33:37.355Z,3.90
2018-12-09T06:36:06.995Z,4.10
2018-12-09T06:38:36.229Z,4.20
2018-12-09T06:41:05.288Z,4.20
2018-12-09T06:43:33.961Z,4.00
2018-12-09T06:46:02.642Z,3.90
2018-12-09T06:48:31.619Z,3.70
2018-12-09T06:51:00.315Z,3.60
2018-12-09T06:53:29.708Z,3.60
2018-12-09T06:55:59.129Z,3.70
2018-12-09T06:58:28.329Z,3.60
2018-12-09T07:00:57.898Z,3.60
2018-12-09T07:03:26.948Z,3.90
2018-12-09T07:05:56.095Z,3.60
2018-12-09T07:08:24.976Z,3.80
2018-12-09T07:10:54.288Z,3.80
2018-12-09T07:13:23.575Z,3.90
2018-12-09T07:15:52.691Z,3.60
2018-12-09T07:18:21.433Z,3.80
2018-12-09T07:20:50.963Z,3.90
2018-12-09T07:23:19.636Z,3.90
2018-12-09T07:25:48.347Z,3.60
2018-12-09T07:28:17.045Z,3.60
2018-12-09T07:30:45.791Z,3.60
2018-12-09T07:33:14.991Z,3.60
2018-12-09T07:35:43.686Z,3.80
2018-12-09T07:38:12.672Z,3.60
2018-12-09T07:40:41.775Z,3.60
2018-12-09T07:43:10.780Z,3.60
2018-12-09T07:45:39.927Z,3.80
2018-12-09T07:48:09.007Z,3.70
2018-12-09T07:50:38.509Z,3.80
2018-12-09T07:53:07.487Z,3.60
2018-12-09T07:55:36.115Z,3.70
2018-12-09T07:58:05.369Z,3.70
2018-12-09T08:00:34.754Z,3.60
2018-12-09T08:03:06.062Z,3.90
2018-12-09T08:05:35.760Z,3.90
2018-12-09T08:08:04.742Z,3.90
2018-12-09T08:10:33.455Z,4.20
2018-12-09T08:13:02.507Z,4.00
2018-12-09T08:15:32.159Z,3.60
2018-12-09T08:18:01.782Z,4.20
2018-12-09T08:20:30.874Z,4.00
2018-12-09T08:23:00.041Z,3.90
2018-12-09T08:25:29.360Z,4.20
2018-12-09T08:27:58.619Z,4.20
2018-12-09T08:30:27.940Z,3.70
2018-12-09T08:32:56.910Z,3.60
2018-12-09T08:35:25.939Z,3.90
2018-12-09T08:37:54.955Z,4.20
2018-12-09T08:40:24.279Z,4.20
2018-12-09T08:42:53.248Z,4.20
2018-12-09T08:45:23.104Z,4.20
2018-12-09T08:47:52.190Z,3.90
2018-12-09T08:50:21.597Z,3.90
2018-12-09T08:52:50.874Z,4.20
2018-12-09T08:55:19.580Z,3.90
2018-12-09T08:57:48.242Z,3.90
2018-12-09T09:00:17.044Z,3.90
2018-12-09T09:02:45.806Z,4.20
2018-12-09T09:05:16.019Z,4.20
2018-12-09T09:07:45.239Z,3.90
2018-12-09T09:10:14.610Z,3.60
2018-12-09T09:12:43.873Z,4.10
2018-12-09T09:15:13.208Z,3.80
2018-12-09T09:17:42.662Z,3.70
2018-12-09T09:20:12.021Z,3.70
2018-12-09T09:22:41.414Z,3.60
2018-12-09T09:25:10.583Z,3.70
2018-12-09T09:27:39.815Z,3.60
2018-12-09T09:30:09.151Z,3.90
2018-12-09T09:32:38.688Z,3.90
2018-12-09T09:35:07.746Z,3.60
2018-12-09T09:37:36.968Z,3.90
2018-12-09T09:40:06.603Z,3.70
2018-12-09T09:42:35.439Z,3.60
2018-12-09T09:45:04.572Z,3.60
2018-12-09T09:47:33.243Z,3.80
2018-12-09T09:50:02.680Z,3.70
2018-12-09T09:52:31.884Z,3.50
2018-12-09T09:55:01.330Z,3.60
2018-12-09T09:57:30.443Z,3.50
2018-12-09T09:59:59.510Z,3.60
2018-12-09T10:02:28.752Z,3.80
2018-12-09T10:04:57.921Z,3.50
2018-12-09T10:07:27.192Z,3.60
2018-12-09T10:09:56.537Z,3.50
2018-12-09T10:12:25.839Z,3.60
2018-12-09T10:14:55.137Z,3.90
2018-12-09T10:17:24.286Z,3.60
2018-12-09T10:19:53.360Z,3.50
2018-12-09T10:22:22.736Z,3.40
2018-12-09T10:24:51.966Z,3.40
2018-12-09T10:27:21.401Z,3.60
2018-12-09T10:29:50.903Z,3.60
2018-12-09T10:32:20.224Z,3.60
2018-12-09T10:34:49.568Z,3.70
2018-12-09T10:37:18.826Z,3.90
2018-12-09T10:39:48.199Z,3.60
2018-12-09T10:42:17.858Z,3.60
2018-12-09T10:44:47.157Z,3.60
2018-12-09T10:47:16.646Z,3.60
2018-12-09T10:49:45.687Z,3.60
2018-12-09T10:52:15.323Z,3.60
2018-12-09T10:54:44.607Z,3.80
2018-12-09T10:57:14.070Z,3.90
2018-12-09T10:59:43.210Z,3.60
2018-12-09T11:02:19.466Z,3.80
2018-12-09T11:04:48.757Z,3.60
2018-12-09T11:07:17.509Z,3.60
2018-12-09T11:09:46.325Z,3.70
2018-12-09T11:12:14.987Z,3.90
2018-12-09T11:14:43.673Z,3.60
2018-12-09T11:17:12.990Z,3.70
2018-12-09T11:19:42.035Z,3.60
2018-12-09T11:22:11.171Z,3.70
2018-12-09T11:24:40.896Z,3.90
2018-12-09T11:27:10.320Z,3.60
2018-12-09T11:29:39.611Z,3.60
2018-12-09T11:32:09.303Z,3.60
2018-12-09T11:34:38.619Z,3.80
2018-12-09T11:37:07.819Z,3.70
2018-12-09T11:39:37.437Z,3.70
2018-12-09T11:42:06.883Z,3.70
2018-12-09T11:44:36.596Z,4.10
2018-12-09T11:47:05.852Z,3.70
2018-12-09T11:49:35.172Z,3.70
2018-12-09T11:52:03.868Z,3.60
2018-12-09T11:54:32.623Z,3.70
2018-12-09T11:57:01.404Z,3.70
2018-12-09T11:59:30.319Z,3.80
2018-12-09T12:01:59.314Z,3.80
2018-12-09T12:04:28.792Z,3.60
2018-12-09T12:06:58.096Z,3.60
2018-12-09T12:09:26.996Z,3.80
2018-12-09T12:11:56.468Z,3.70
2018-12-09T12:14:25.814Z,3.70
2018-12-09T12:16:55.274Z,3.60
2018-12-09T12:19:24.602Z,3.60
2018-12-09T12:21:54.160Z,3.90
2018-12-09T12:24:23.357Z,3.70
2018-12-09T12:26:53.220Z,3.60
2018-12-09T12:29:22.509Z,3.60
2018-12-09T12:31:51.822Z,3.90
2018-12-09T12:34:21.321Z,3.60
2018-12-09T12:36:50.588Z,3.60
2018-12-09T12:39:20.147Z,3.60
2018-12-09T12:41:48.781Z,3.60
2018-12-09T12:44:18.122Z,3.70
2018-12-09T12:46:47.595Z,3.70
2018-12-09T12:49:16.885Z,3.60
2018-12-09T12:51:46.012Z,3.60
2018-12-09T12:54:15.341Z,3.60
2018-12-09T12:56:44.885Z,3.90
2018-12-09T12:59:14.020Z,3.60
2018-12-09T13:01:43.335Z,3.60
2018-12-09T13:04:12.837Z,3.60
2018-12-09T13:06:42.169Z,3.60
2018-12-09T13:09:11.600Z,3.70
2018-12-09T13:11:41.525Z,3.70
2018-12-09T13:14:10.585Z,3.60
2018-12-09T13:16:39.902Z,3.70
2018-12-09T13:19:09.394Z,3.80
2018-12-09T13:21:38.176Z,3.60
2018-12-09T13:24:07.287Z,3.70
2018-12-09T13:26:36.005Z,3.60
2018-12-09T13:29:04.770Z,3.60
2018-12-09T13:31:34.512Z,3.80
2018-12-09T13:34:03.934Z,3.70
2018-12-09T13:36:32.850Z,3.60
2018-12-09T13:39:02.143Z,3.90
2018-12-09T13:41:31.305Z,3.60
2018-12-09T13:44:00.455Z,3.60
2018-12-09T13:46:29.515Z,3.60
2018-12-09T13:48:58.806Z,3.50
2018-12-09T13:51:28.074Z,3.60
2018-12-09T13:53:57.395Z,3.90
2018-12-09T13:56:26.721Z,3.40
2018-12-09T13:58:55.827Z,3.60
2018-12-09T14:01:25.334Z,3.80
2018-12-09T14:03:56.241Z,3.30
2018-12-09T14:06:25.808Z,3.40
2018-12-09T14:08:55.092Z,3.90
2018-12-09T14:11:23.843Z,3.40
2018-12-09T14:13:52.651Z,3.70
2018-12-09T14:16:21.851Z,3.40
2018-12-09T14:18:51.341Z,3.40
2018-12-09T14:21:20.513Z,3.30
2018-12-09T14:23:49.860Z,3.40
2018-12-09T14:26:19.090Z,3.30
2018-12-09T14:28:48.276Z,3.30
2018-12-09T14:31:17.783Z,3.30
2018-12-09T14:33:46.874Z,3.30
2018-12-09T14:36:15.979Z,3.40
2018-12-09T14:38:45.071Z,3.40
2018-12-09T14:41:14.390Z,3.50
2018-12-09T14:43:43.592Z,3.60
2018-12-09T14:46:12.864Z,3.30
2018-12-09T14:48:41.575Z,3.40
2018-12-09T14:51:10.297Z,3.60
2018-12-09T14:53:38.995Z,3.60
2018-12-09T14:56:07.713Z,3.30
2018-12-09T14:58:36.352Z,3.30
2018-12-09T15:01:05.761Z,3.60
2018-12-09T15:03:35.497Z,3.40
2018-12-09T15:06:04.719Z,3.80
2018-12-09T15:08:34.444Z,3.90
2018-12-09T15:11:03.530Z,3.40
2018-12-09T15:13:33.147Z,3.40
2018-12-09T15:16:02.533Z,3.40
2018-12-09T15:18:31.843Z,3.40
2018-12-09T15:21:01.139Z,3.40
2018-12-09T15:23:30.466Z,3.40
2018-12-09T15:26:00.126Z,3.40
2018-12-09T15:28:29.671Z,3.40
2018-12-09T15:30:58.952Z,3.50
2018-12-09T15:33:27.676Z,3.70
2018-12-09T15:35:56.342Z,3.40
2018-12-09T15:38:24.974Z,3.70
2018-12-09T15:40:53.727Z,3.90
2018-12-09T15:43:22.423Z,3.60
2018-12-09T15:45:51.587Z,3.70
2018-12-09T15:48:21.126Z,3.40
2018-12-09T15:50:50.709Z,3.60
2018-12-09T15:53:19.930Z,3.90
2018-12-09T15:55:48.962Z,3.90
2018-12-09T15:58:18.153Z,3.90
2018-12-09T16:00:53.355Z,3.70
2018-12-09T16:03:22.366Z,3.80
2018-12-09T16:05:51.537Z,3.70
2018-12-09T16:08:20.706Z,3.30
2018-12-09T16:10:49.922Z,3.40
2018-12-09T16:13:19.038Z,3.40
2018-12-09T16:15:48.081Z,3.40
2018-12-09T16:18:16.755Z,3.40
2018-12-09T16:20:45.414Z,3.40
2018-12-09T16:23:14.845Z,3.30
2018-12-09T16:25:43.783Z,3.30
2018-12-09T16:28:13.029Z,3.50
2018-12-09T16:30:42.301Z,3.50
2018-12-09T16:33:11.520Z,3.30
2018-12-09T16:35:40.866Z,3.30
2018-12-09T16:38:10.378Z,3.30
2018-12-09T16:40:39.398Z,3.50
2018-12-09T16:43:08.576Z,3.40
2018-12-09T16:45:37.871Z,3.60
2018-12-09T16:48:07.150Z,3.40
2018-12-09T16:50:36.633Z,3.40
2018-12-09T16:53:05.989Z,3.50
2018-12-09T16:55:35.226Z,3.30
2018-12-09T16:58:04.530Z,3.70
2018-12-09T17:00:33.834Z,3.80
2018-12-09T17:03:03.040Z,3.70
2018-12-09T17:05:32.470Z,3.90
2018-12-09T17:08:01.734Z,3.60
2018-12-09T17:10:31.030Z,3.60
2018-12-09T17:13:00.354Z,3.60
2018-12-09T17:15:29.626Z,3.90
2018-12-09T17:17:58.794Z,3.90
2018-12-09T17:20:28.038Z,3.60
2018-12-09T17:22:57.479Z,3.60
2018-12-09T17:25:27.169Z,3.60
2018-12-09T17:27:56.454Z,3.90
2018-12-09T17:30:25.505Z,4.00
2018-12-09T17:32:55.040Z,3.80
2018-12-09T17:35:24.596Z,3.70
2018-12-09T17:37:53.820Z,3.70
2018-12-09T17:40:22.969Z,3.70
2018-12-09T17:42:52.229Z,4.00
2018-12-09T17:45:21.305Z,3.90
2018-12-09T17:47:50.060Z,3.90
2018-12-09T17:50:19.277Z,3.80
2018-12-09T17:52:47.938Z,3.70
2018-12-09T17:55:16.606Z,4.10
2018-12-09T17:57:45.766Z,3.90
2018-12-09T18:00:15.090Z,4.20
2018-12-09T18:02:44.698Z,3.70
2018-12-09T18:05:14.072Z,3.60
2018-12-09T18:07:43.134Z,3.60
2018-12-09T18:10:12.538Z,3.60
2018-12-09T18:12:47.909Z,3.70
2018-12-09T18:15:14.133Z,3.70
2018-12-09T18:17:43.598Z,3.60
2018-12-09T18:20:14.528Z,3.60
2018-12-09T18:22:44.233Z,3.40
2018-12-09T18:25:13.601Z,3.60
2018-12-09T18:27:43.084Z,3.20
2018-12-09T18:30:12.368Z,3.20
2018-12-09T18:32:41.615Z,3.40
2018-12-09T18:35:10.390Z,3.10
2018-12-09T18:37:39.775Z,2.80
2018-12-09T18:40:09.070Z,2.90
2018-12-09T18:42:38.164Z,2.80
2018-12-09T18:45:07.290Z,2.80
2018-12-09T18:47:36.585Z,2.50
2018-12-09T18:50:06.300Z,2.30
2018-12-09T18:52:35.480Z,2.30
2018-12-09T18:55:05.013Z,2.30
2018-12-09T18:57:34.702Z,2.30
2018-12-09T19:00:03.453Z,2.10
2018-12-09T19:02:32.502Z,2.10
2018-12-09T19:05:01.974Z,2.00
2018-12-09T19:07:31.468Z,2.20
2018-12-09T19:10:02.278Z,2.00
2018-12-09T19:12:31.705Z,2.20
2018-12-09T19:15:01.259Z,2.00
2018-12-09T19:17:30.013Z,2.00
2018-12-09T19:19:59.008Z,2.00
2018-12-09T19:22:28.208Z,2.20
2018-12-09T19:24:56.930Z,2.10
2018-12-09T19:27:26.294Z,2.10
2018-12-09T19:29:55.764Z,2.00
2018-12-09T19:32:25.323Z,2.10
2018-12-09T19:34:54.647Z,2.10
2018-12-09T19:37:23.968Z,2.00
2018-12-09T19:39:52.994Z,2.10
2018-12-09T19:42:22.019Z,2.00
2018-12-09T19:44:51.274Z,2.00
2018-12-09T19:47:20.703Z,2.00
2018-12-09T19:49:50.013Z,2.30
2018-12-09T19:52:19.757Z,2.30
2018-12-09T19:54:49.117Z,1.90
2018-12-09T19:57:18.287Z,2.30
2018-12-09T19:59:47.129Z,2.30
2018-12-09T20:02:15.989Z,2.30
2018-12-09T20:04:46.891Z,2.40
2018-12-09T20:07:15.921Z,2.50
2018-12-09T20:09:44.775Z,2.10
2018-12-09T20:12:13.576Z,2.00
2018-12-09T20:14:42.717Z,2.00
2018-12-09T20:17:12.175Z,2.20
2018-12-09T20:19:40.900Z,2.10
2018-12-09T20:22:10.200Z,2.00
2018-12-09T20:24:38.869Z,1.80
2018-12-09T20:27:07.552Z,1.80
2018-12-09T20:29:36.314Z,1.80
2018-12-09T20:32:05.069Z,1.60
2018-12-09T20:34:34.545Z,1.80
2018-12-09T20:37:03.758Z,1.80
2018-12-09T20:39:32.957Z,1.80
2018-12-09T20:42:02.165Z,1.80
2018-12-09T20:44:31.203Z,1.70
2018-12-09T20:46:59.831Z,2.00
2018-12-09T20:49:28.711Z,1.80
2018-12-09T20:51:57.422Z,1.80
2018-12-09T20:54:26.154Z,1.70
2018-12-09T20:56:55.770Z,1.80
2018-12-09T20:59:25.236Z,1.80
2018-12-09T21:01:53.981Z,1.80
2018-12-09T21:04:23.234Z,1.60
2018-12-09T21:06:52.528Z,1.70
2018-12-09T21:09:22.003Z,1.60
2018-12-09T21:11:51.619Z,1.70
2018-12-09T21:14:21.847Z,1.80
2018-12-09T21:16:51.387Z,1.60
2018-12-09T21:19:20.644Z,1.70
2018-12-09T21:21:49.368Z,1.70
2018-12-09T21:24:25.580Z,1.60
2018-12-09T21:26:49.097Z,1.80
2018-12-09T21:29:17.749Z,1.90
2018-12-09T21:31:46.474Z,1.70
2018-12-09T21:34:15.252Z,1.80
2018-12-09T21:36:44.027Z,1.80
2018-12-09T21:39:13.405Z,1.80
2018-12-09T21:41:42.719Z,1.70
2018-12-09T21:44:12.282Z,1.70
2018-12-09T21:46:41.623Z,1.80
2018-12-09T21:49:10.816Z,1.90
2018-12-09T21:51:40.008Z,1.70
2018-12-09T21:54:09.022Z,1.90
2018-12-09T21:56:38.283Z,1.80
2018-12-09T21:59:07.577Z,2.00
2018-12-09T22:01:36.723Z,1.70
2018-12-09T22:04:06.013Z,1.70
2018-12-09T22:06:35.191Z,1.70
2018-12-09T22:09:06.035Z,1.60
2018-12-09T22:11:35.308Z,1.60
2018-12-09T22:14:03.992Z,1.80
2018-12-09T22:16:32.710Z,1.70
2018-12-09T22:19:01.394Z,1.80
2018-12-09T22:21:30.395Z,1.80
2018-12-09T22:23:59.368Z,1.80
2018-12-09T22:26:28.680Z,1.80
2018-12-09T22:28:57.806Z,1.60
2018-12-09T22:31:26.698Z,1.80
2018-12-09T22:33:55.983Z,1.80
2018-12-09T22:36:25.238Z,2.10
2018-12-09T22:38:54.708Z,2.10
2018-12-09T22:41:23.720Z,2.20
2018-12-09T22:43:52.798Z,2.00
2018-12-09T22:46:22.218Z,2.10
2018-12-09T22:48:51.800Z,2.00
2018-12-09T22:51:21.342Z,2.10
2018-12-09T22:53:50.500Z,2.00
2018-12-09T22:56:19.858Z,2.10
2018-12-09T22:58:48.721Z,2.40
2018-12-09T23:01:19.853Z,2.50
2018-12-09T23:03:48.627Z,2.20
2018-12-09T23:06:17.476Z,2.30
2018-12-09T23:08:46.409Z,2.30
2018-12-09T23:11:15.738Z,2.30
2018-12-09T23:13:44.849Z,2.50
2018-12-09T23:16:14.167Z,2.20
2018-12-09T23:18:43.381Z,2.40
2018-12-09T23:21:12.442Z,2.30
2018-12-09T23:23:41.746Z,2.30
2018-12-09T23:26:10.832Z,2.30
2018-12-09T23:28:40.207Z,2.30
2018-12-09T23:31:09.673Z,2.30
2018-12-09T23:33:38.796Z,2.10
2018-12-09T23:36:08.018Z,2.40
2018-12-09T23:38:37.316Z,2.10
2018-12-09T23:41:06.003Z,2.00
2018-12-09T23:43:35.123Z,2.10
2018-12-09T23:46:03.866Z,2.20
2018-12-09T23:48:32.624Z,2.10
2018-12-09T23:51:01.370Z,2.30
2018-12-09T23:53:30.148Z,2.10
2018-12-09T23:55:58.935Z,2.20
2018-12-09T23:58:27.729Z,2.00
